sensor_id;sensor_type;location;lat;lon;timestamp;P1;durP1;ratioP1;P2;durP2;ratioP2
28926;SDS011;16038;47.692;9.400;2022-09-21T00:00:29;9.20;;;3.60;;
28926;SDS011;16038;47.692;9.400;2022-09-21T00:02:55;9.70;;;4.40;;
28926;SDS011;16038;47.692;9.400;2022-09-21T00:05:21;9.75;;;3.70;;
28926;SDS011;16038;47.692;9.400;2022-09-21T00:07:47;20.70;;;9.73;;
28926;SDS011;16038;47.692;9.400;2022-09-21T00:10:13;10.90;;;3.85;;
28926;SDS011;16038;47.692;9.400;2022-09-21T00:12:39;8.85;;;2.95;;
28926;SDS011;16038;47.692;9.400;2022-09-21T00:15:05;10.75;;;3.17;;
28926;SDS011;16038;47.692;9.400;2022-09-21T00:17:32;7.40;;;2.88;;
28926;SDS011;16038;47.692;9.400;2022-09-21T00:19:58;6.00;;;2.90;;
28926;SDS011;16038;47.692;9.400;2022-09-21T00:22:29;8.02;;;2.83;;
28926;SDS011;16038;47.692;9.400;2022-09-21T00:24:55;9.75;;;3.00;;
28926;SDS011;16038;47.692;9.400;2022-09-21T00:27:21;11.60;;;3.38;;
28926;SDS011;16038;47.692;9.400;2022-09-21T00:29:46;9.30;;;3.55;;
28926;SDS011;16038;47.692;9.400;2022-09-21T00:32:13;12.25;;;3.45;;
28926;SDS011;16038;47.692;9.400;2022-09-21T00:34:39;6.30;;;3.00;;
28926;SDS011;16038;47.692;9.400;2022-09-21T00:37:05;10.13;;;2.63;;
28926;SDS011;16038;47.692;9.400;2022-09-21T00:39:33;10.73;;;3.40;;
28926;SDS011;16038;47.692;9.400;2022-09-21T00:41:59;5.47;;;3.08;;
28926;SDS011;16038;47.692;9.400;2022-09-21T00:46:59;14.38;;;3.92;;
28926;SDS011;16038;47.692;9.400;2022-09-21T00:49:30;8.27;;;2.90;;
28926;SDS011;16038;47.692;9.400;2022-09-21T00:51:58;9.70;;;3.25;;
28926;SDS011;16038;47.692;9.400;2022-09-21T00:54:29;8.65;;;3.05;;
28926;SDS011;16038;47.692;9.400;2022-09-21T00:57:01;9.32;;;3.25;;
28926;SDS011;16038;47.692;9.400;2022-09-21T00:59:28;7.55;;;3.17;;
28926;SDS011;16038;47.692;9.400;2022-09-21T01:01:57;7.18;;;3.00;;
28926;SDS011;16038;47.692;9.400;2022-09-21T01:04:24;8.95;;;3.50;;
28926;SDS011;16038;47.692;9.400;2022-09-21T01:06:50;9.18;;;3.17;;
28926;SDS011;16038;47.692;9.400;2022-09-21T01:09:16;12.32;;;3.42;;
28926;SDS011;16038;47.692;9.400;2022-09-21T01:11:56;14.43;;;3.28;;
28926;SDS011;16038;47.692;9.400;2022-09-21T01:14:57;8.77;;;3.63;;
28926;SDS011;16038;47.692;9.400;2022-09-21T01:26:00;17.27;;;4.47;;
28926;SDS011;16038;47.692;9.400;2022-09-21T01:31:31;9.68;;;4.30;;
28926;SDS011;16038;47.692;9.400;2022-09-21T01:34:06;11.95;;;4.18;;
28926;SDS011;16038;47.692;9.400;2022-09-21T01:36:44;7.38;;;4.10;;
28926;SDS011;16038;47.692;9.400;2022-09-21T01:39:13;6.83;;;3.77;;
28926;SDS011;16038;47.692;9.400;2022-09-21T01:41:43;10.40;;;4.67;;
28926;SDS011;16038;47.692;9.400;2022-09-21T01:44:12;8.35;;;4.13;;
28926;SDS011;16038;47.692;9.400;2022-09-21T01:46:42;8.23;;;3.75;;
28926;SDS011;16038;47.692;9.400;2022-09-21T01:49:11;13.38;;;4.13;;
28926;SDS011;16038;47.692;9.400;2022-09-21T01:51:43;9.27;;;3.83;;
28926;SDS011;16038;47.692;9.400;2022-09-21T01:54:17;7.95;;;3.88;;
28926;SDS011;16038;47.692;9.400;2022-09-21T01:57:04;10.15;;;4.13;;
28926;SDS011;16038;47.692;9.400;2022-09-21T01:59:39;12.60;;;4.10;;
28926;SDS011;16038;47.692;9.400;2022-09-21T02:02:15;11.13;;;4.15;;
28926;SDS011;16038;47.692;9.400;2022-09-21T02:04:44;12.13;;;3.60;;
28926;SDS011;16038;47.692;9.400;2022-09-21T02:07:10;14.10;;;4.20;;
28926;SDS011;16038;47.692;9.400;2022-09-21T02:09:35;12.10;;;4.05;;
28926;SDS011;16038;47.692;9.400;2022-09-21T02:12:02;12.10;;;3.72;;
28926;SDS011;16038;47.692;9.400;2022-09-21T02:14:28;11.85;;;3.65;;
28926;SDS011;16038;47.692;9.400;2022-09-21T02:17:04;8.38;;;4.28;;
28926;SDS011;16038;47.692;9.400;2022-09-21T02:22:45;10.30;;;3.58;;
28926;SDS011;16038;47.692;9.400;2022-09-21T02:26:02;10.48;;;3.10;;
28926;SDS011;16038;47.692;9.400;2022-09-21T02:30:42;9.70;;;4.45;;
28926;SDS011;16038;47.692;9.400;2022-09-21T02:33:18;12.82;;;5.10;;
28926;SDS011;16038;47.692;9.400;2022-09-21T02:38:33;10.93;;;3.50;;
28926;SDS011;16038;47.692;9.400;2022-09-21T02:41:04;10.88;;;3.55;;
28926;SDS011;16038;47.692;9.400;2022-09-21T02:49:34;12.40;;;3.50;;
28926;SDS011;16038;47.692;9.400;2022-09-21T02:52:04;6.20;;;3.22;;
28926;SDS011;16038;47.692;9.400;2022-09-21T02:54:35;9.63;;;3.67;;
28926;SDS011;16038;47.692;9.400;2022-09-21T02:57:04;9.13;;;3.67;;
28926;SDS011;16038;47.692;9.400;2022-09-21T02:59:31;10.05;;;3.85;;
28926;SDS011;16038;47.692;9.400;2022-09-21T03:01:57;8.07;;;3.28;;
28926;SDS011;16038;47.692;9.400;2022-09-21T03:04:22;9.80;;;3.60;;
28926;SDS011;16038;47.692;9.400;2022-09-21T03:06:48;7.88;;;3.83;;
28926;SDS011;16038;47.692;9.400;2022-09-21T03:09:14;12.32;;;4.38;;
28926;SDS011;16038;47.692;9.400;2022-09-21T03:11:39;7.40;;;3.25;;
28926;SDS011;16038;47.692;9.400;2022-09-21T03:14:08;8.77;;;3.30;;
28926;SDS011;16038;47.692;9.400;2022-09-21T03:16:34;8.10;;;3.70;;
28926;SDS011;16038;47.692;9.400;2022-09-21T03:19:00;8.88;;;3.25;;
28926;SDS011;16038;47.692;9.400;2022-09-21T03:21:25;10.35;;;3.47;;
28926;SDS011;16038;47.692;9.400;2022-09-21T03:23:51;8.27;;;3.08;;
28926;SDS011;16038;47.692;9.400;2022-09-21T03:26:16;5.93;;;3.22;;
28926;SDS011;16038;47.692;9.400;2022-09-21T03:28:46;8.13;;;3.17;;
28926;SDS011;16038;47.692;9.400;2022-09-21T03:31:16;12.57;;;3.17;;
28926;SDS011;16038;47.692;9.400;2022-09-21T03:33:41;9.15;;;3.03;;
28926;SDS011;16038;47.692;9.400;2022-09-21T03:36:07;8.57;;;3.17;;
28926;SDS011;16038;47.692;9.400;2022-09-21T03:38:33;13.07;;;3.22;;
28926;SDS011;16038;47.692;9.400;2022-09-21T03:40:58;9.77;;;3.50;;
28926;SDS011;16038;47.692;9.400;2022-09-21T03:43:24;12.18;;;3.10;;
28926;SDS011;16038;47.692;9.400;2022-09-21T03:45:50;15.73;;;3.72;;
28926;SDS011;16038;47.692;9.400;2022-09-21T03:48:15;10.75;;;3.58;;
28926;SDS011;16038;47.692;9.400;2022-09-21T03:50:41;7.75;;;3.33;;
28926;SDS011;16038;47.692;9.400;2022-09-21T03:53:07;6.32;;;2.88;;
28926;SDS011;16038;47.692;9.400;2022-09-21T03:55:33;6.95;;;2.88;;
28926;SDS011;16038;47.692;9.400;2022-09-21T03:57:59;8.15;;;2.95;;
28926;SDS011;16038;47.692;9.400;2022-09-21T04:00:24;7.35;;;3.17;;
28926;SDS011;16038;47.692;9.400;2022-09-21T04:02:50;15.13;;;3.35;;
28926;SDS011;16038;47.692;9.400;2022-09-21T04:05:16;9.50;;;3.17;;
28926;SDS011;16038;47.692;9.400;2022-09-21T04:07:42;8.75;;;3.30;;
28926;SDS011;16038;47.692;9.400;2022-09-21T04:10:10;14.57;;;3.63;;
28926;SDS011;16038;47.692;9.400;2022-09-21T04:12:38;8.55;;;3.72;;
28926;SDS011;16038;47.692;9.400;2022-09-21T04:15:11;13.18;;;3.97;;
28926;SDS011;16038;47.692;9.400;2022-09-21T04:17:43;10.48;;;3.88;;
28926;SDS011;16038;47.692;9.400;2022-09-21T04:20:15;10.85;;;3.72;;
28926;SDS011;16038;47.692;9.400;2022-09-21T04:22:40;13.75;;;4.43;;
28926;SDS011;16038;47.692;9.400;2022-09-21T04:25:06;10.82;;;3.85;;
28926;SDS011;16038;47.692;9.400;2022-09-21T04:27:32;8.85;;;4.20;;
28926;SDS011;16038;47.692;9.400;2022-09-21T04:29:58;7.88;;;3.75;;
28926;SDS011;16038;47.692;9.400;2022-09-21T04:32:24;11.73;;;3.97;;
28926;SDS011;16038;47.692;9.400;2022-09-21T04:34:50;10.55;;;4.07;;
28926;SDS011;16038;47.692;9.400;2022-09-21T04:37:15;11.10;;;3.75;;
28926;SDS011;16038;47.692;9.400;2022-09-21T04:39:41;11.57;;;3.97;;
28926;SDS011;16038;47.692;9.400;2022-09-21T04:42:06;11.40;;;4.07;;
28926;SDS011;16038;47.692;9.400;2022-09-21T04:44:32;11.98;;;4.38;;
28926;SDS011;16038;47.692;9.400;2022-09-21T04:46:58;11.07;;;4.07;;
28926;SDS011;16038;47.692;9.400;2022-09-21T04:49:24;9.70;;;4.32;;
28926;SDS011;16038;47.692;9.400;2022-09-21T04:51:49;9.48;;;3.92;;
28926;SDS011;16038;47.692;9.400;2022-09-21T04:54:15;12.15;;;3.97;;
28926;SDS011;16038;47.692;9.400;2022-09-21T04:56:41;13.13;;;4.53;;
28926;SDS011;16038;47.692;9.400;2022-09-21T04:59:06;12.43;;;4.47;;
28926;SDS011;16038;47.692;9.400;2022-09-21T05:01:31;14.43;;;4.32;;
28926;SDS011;16038;47.692;9.400;2022-09-21T05:03:57;12.40;;;4.68;;
28926;SDS011;16038;47.692;9.400;2022-09-21T05:06:29;10.55;;;5.15;;
28926;SDS011;16038;47.692;9.400;2022-09-21T05:08:55;11.38;;;5.15;;
28926;SDS011;16038;47.692;9.400;2022-09-21T05:11:39;11.82;;;5.18;;
28926;SDS011;16038;47.692;9.400;2022-09-21T05:14:05;10.63;;;4.68;;
28926;SDS011;16038;47.692;9.400;2022-09-21T05:16:31;11.85;;;4.78;;
28926;SDS011;16038;47.692;9.400;2022-09-21T05:18:56;12.82;;;5.32;;
28926;SDS011;16038;47.692;9.400;2022-09-21T05:21:22;10.88;;;4.47;;
28926;SDS011;16038;47.692;9.400;2022-09-21T05:23:47;10.13;;;4.75;;
28926;SDS011;16038;47.692;9.400;2022-09-21T05:26:13;13.82;;;4.80;;
28926;SDS011;16038;47.692;9.400;2022-09-21T05:28:38;13.20;;;5.30;;
28926;SDS011;16038;47.692;9.400;2022-09-21T05:31:12;8.25;;;4.57;;
28926;SDS011;16038;47.692;9.400;2022-09-21T05:39:14;8.75;;;5.30;;
28926;SDS011;16038;47.692;9.400;2022-09-21T05:41:39;8.73;;;4.78;;
28926;SDS011;16038;47.692;9.400;2022-09-21T05:44:05;9.35;;;4.65;;
28926;SDS011;16038;47.692;9.400;2022-09-21T05:46:34;8.93;;;4.53;;
28926;SDS011;16038;47.692;9.400;2022-09-21T05:54:38;10.95;;;4.57;;
28926;SDS011;16038;47.692;9.400;2022-09-21T05:57:36;10.93;;;4.85;;
28926;SDS011;16038;47.692;9.400;2022-09-21T06:00:20;8.90;;;4.18;;
28926;SDS011;16038;47.692;9.400;2022-09-21T06:05:49;12.07;;;4.30;;
28926;SDS011;16038;47.692;9.400;2022-09-21T06:08:15;9.95;;;5.05;;
28926;SDS011;16038;47.692;9.400;2022-09-21T06:10:40;11.32;;;4.53;;
28926;SDS011;16038;47.692;9.400;2022-09-21T06:13:05;10.30;;;4.20;;
28926;SDS011;16038;47.692;9.400;2022-09-21T06:15:32;7.40;;;4.05;;
28926;SDS011;16038;47.692;9.400;2022-09-21T06:18:02;8.45;;;4.10;;
28926;SDS011;16038;47.692;9.400;2022-09-21T06:20:31;8.73;;;3.80;;
28926;SDS011;16038;47.692;9.400;2022-09-21T06:23:07;12.90;;;3.88;;
28926;SDS011;16038;47.692;9.400;2022-09-21T06:25:34;10.10;;;3.92;;
28926;SDS011;16038;47.692;9.400;2022-09-21T06:28:01;16.58;;;5.13;;
28926;SDS011;16038;47.692;9.400;2022-09-21T06:30:28;11.07;;;3.75;;
28926;SDS011;16038;47.692;9.400;2022-09-21T06:32:57;11.18;;;3.38;;
28926;SDS011;16038;47.692;9.400;2022-09-21T06:35:24;9.18;;;3.55;;
28926;SDS011;16038;47.692;9.400;2022-09-21T06:37:50;13.23;;;3.78;;
28926;SDS011;16038;47.692;9.400;2022-09-21T06:40:15;9.85;;;3.05;;
28926;SDS011;16038;47.692;9.400;2022-09-21T06:42:40;9.32;;;3.20;;
28926;SDS011;16038;47.692;9.400;2022-09-21T06:45:06;9.93;;;3.28;;
28926;SDS011;16038;47.692;9.400;2022-09-21T06:47:32;8.70;;;3.20;;
28926;SDS011;16038;47.692;9.400;2022-09-21T06:49:58;7.90;;;3.45;;
28926;SDS011;16038;47.692;9.400;2022-09-21T06:52:23;7.93;;;2.90;;
28926;SDS011;16038;47.692;9.400;2022-09-21T06:54:48;7.60;;;2.88;;
28926;SDS011;16038;47.692;9.400;2022-09-21T06:57:14;7.60;;;2.70;;
28926;SDS011;16038;47.692;9.400;2022-09-21T06:59:39;7.13;;;2.65;;
28926;SDS011;16038;47.692;9.400;2022-09-21T07:02:05;6.63;;;2.58;;
28926;SDS011;16038;47.692;9.400;2022-09-21T07:04:31;4.97;;;2.53;;
28926;SDS011;16038;47.692;9.400;2022-09-21T07:06:56;7.18;;;2.75;;
28926;SDS011;16038;47.692;9.400;2022-09-21T07:09:22;5.63;;;2.53;;
28926;SDS011;16038;47.692;9.400;2022-09-21T07:11:49;6.07;;;2.40;;
28926;SDS011;16038;47.692;9.400;2022-09-21T07:14:14;6.45;;;2.38;;
28926;SDS011;16038;47.692;9.400;2022-09-21T07:16:39;8.30;;;3.00;;
28926;SDS011;16038;47.692;9.400;2022-09-21T07:19:05;7.90;;;2.75;;
28926;SDS011;16038;47.692;9.400;2022-09-21T07:21:31;6.00;;;2.50;;
28926;SDS011;16038;47.692;9.400;2022-09-21T07:23:59;8.13;;;2.80;;
28926;SDS011;16038;47.692;9.400;2022-09-21T07:26:26;9.45;;;3.03;;
28926;SDS011;16038;47.692;9.400;2022-09-21T07:28:51;5.13;;;1.95;;
28926;SDS011;16038;47.692;9.400;2022-09-21T07:31:17;7.38;;;2.80;;
28926;SDS011;16038;47.692;9.400;2022-09-21T07:33:43;5.93;;;2.20;;
28926;SDS011;16038;47.692;9.400;2022-09-21T07:36:11;8.95;;;2.78;;
28926;SDS011;16038;47.692;9.400;2022-09-21T07:38:37;8.30;;;2.80;;
28926;SDS011;16038;47.692;9.400;2022-09-21T07:41:07;6.65;;;2.53;;
28926;SDS011;16038;47.692;9.400;2022-09-21T07:43:34;7.63;;;2.60;;
28926;SDS011;16038;47.692;9.400;2022-09-21T07:46:03;6.53;;;2.88;;
28926;SDS011;16038;47.692;9.400;2022-09-21T07:48:29;6.78;;;2.45;;
28926;SDS011;16038;47.692;9.400;2022-09-21T07:50:59;6.13;;;2.17;;
28926;SDS011;16038;47.692;9.400;2022-09-21T07:53:28;4.65;;;2.30;;
28926;SDS011;16038;47.692;9.400;2022-09-21T07:55:59;6.80;;;2.28;;
28926;SDS011;16038;47.692;9.400;2022-09-21T07:58:25;6.78;;;2.20;;
28926;SDS011;16038;47.692;9.400;2022-09-21T08:01:09;7.43;;;2.10;;
28926;SDS011;16038;47.692;9.400;2022-09-21T08:03:34;13.20;;;2.55;;
28926;SDS011;16038;47.692;9.400;2022-09-21T08:05:59;6.97;;;2.40;;
28926;SDS011;16038;47.692;9.400;2022-09-21T08:08:25;6.68;;;1.98;;
28926;SDS011;16038;47.692;9.400;2022-09-21T08:10:50;6.90;;;2.40;;
28926;SDS011;16038;47.692;9.400;2022-09-21T08:13:17;8.85;;;2.53;;
28926;SDS011;16038;47.692;9.400;2022-09-21T08:15:42;7.35;;;2.50;;
28926;SDS011;16038;47.692;9.400;2022-09-21T08:18:08;6.50;;;1.95;;
28926;SDS011;16038;47.692;9.400;2022-09-21T08:20:33;8.23;;;2.40;;
28926;SDS011;16038;47.692;9.400;2022-09-21T08:22:58;6.88;;;2.55;;
28926;SDS011;16038;47.692;9.400;2022-09-21T08:25:24;6.93;;;2.03;;
28926;SDS011;16038;47.692;9.400;2022-09-21T08:27:50;6.10;;;2.10;;
28926;SDS011;16038;47.692;9.400;2022-09-21T08:30:16;7.63;;;2.20;;
28926;SDS011;16038;47.692;9.400;2022-09-21T08:32:41;10.40;;;2.38;;
28926;SDS011;16038;47.692;9.400;2022-09-21T08:35:07;3.90;;;1.98;;
28926;SDS011;16038;47.692;9.400;2022-09-21T08:37:33;5.10;;;2.35;;
28926;SDS011;16038;47.692;9.400;2022-09-21T08:40:01;7.35;;;1.92;;
28926;SDS011;16038;47.692;9.400;2022-09-21T08:44:58;6.07;;;2.10;;
28926;SDS011;16038;47.692;9.400;2022-09-21T08:47:45;4.60;;;2.00;;
28926;SDS011;16038;47.692;9.400;2022-09-21T08:52:56;9.35;;;2.10;;
28926;SDS011;16038;47.692;9.400;2022-09-21T08:55:26;5.63;;;1.80;;
28926;SDS011;16038;47.692;9.400;2022-09-21T08:57:51;5.57;;;1.85;;
28926;SDS011;16038;47.692;9.400;2022-09-21T09:00:17;4.30;;;1.65;;
28926;SDS011;16038;47.692;9.400;2022-09-21T09:02:48;5.50;;;1.70;;
28926;SDS011;16038;47.692;9.400;2022-09-21T09:08:44;5.80;;;1.50;;
28926;SDS011;16038;47.692;9.400;2022-09-21T09:25:26;10.10;;;1.23;;
28926;SDS011;16038;47.692;9.400;2022-09-21T09:28:00;7.20;;;1.30;;
28926;SDS011;16038;47.692;9.400;2022-09-21T09:30:39;3.88;;;1.10;;
28926;SDS011;16038;47.692;9.400;2022-09-21T09:33:23;5.38;;;1.52;;
28926;SDS011;16038;47.692;9.400;2022-09-21T09:36:02;4.18;;;1.30;;
28926;SDS011;16038;47.692;9.400;2022-09-21T09:46:58;4.88;;;1.20;;
28926;SDS011;16038;47.692;9.400;2022-09-21T09:52:13;3.85;;;1.60;;
28926;SDS011;16038;47.692;9.400;2022-09-21T09:54:43;4.82;;;1.23;;
28926;SDS011;16038;47.692;9.400;2022-09-21T09:57:14;4.35;;;1.20;;
28926;SDS011;16038;47.692;9.400;2022-09-21T09:59:53;2.13;;;1.00;;
28926;SDS011;16038;47.692;9.400;2022-09-21T10:04:53;4.85;;;1.08;;
28926;SDS011;16038;47.692;9.400;2022-09-21T10:07:32;5.25;;;1.20;;
28926;SDS011;16038;47.692;9.400;2022-09-21T10:10:25;5.90;;;1.17;;
28926;SDS011;16038;47.692;9.400;2022-09-21T10:12:51;4.70;;;1.20;;
28926;SDS011;16038;47.692;9.400;2022-09-21T10:15:17;9.35;;;1.40;;
28926;SDS011;16038;47.692;9.400;2022-09-21T10:17:46;4.00;;;0.90;;
28926;SDS011;16038;47.692;9.400;2022-09-21T10:20:14;6.50;;;1.15;;
28926;SDS011;16038;47.692;9.400;2022-09-21T10:22:46;2.70;;;0.68;;
28926;SDS011;16038;47.692;9.400;2022-09-21T10:25:18;3.28;;;0.90;;
28926;SDS011;16038;47.692;9.400;2022-09-21T10:27:46;4.70;;;1.25;;
28926;SDS011;16038;47.692;9.400;2022-09-21T10:32:55;6.15;;;1.60;;
28926;SDS011;16038;47.692;9.400;2022-09-21T10:35:22;9.05;;;1.42;;
28926;SDS011;16038;47.692;9.400;2022-09-21T10:37:48;2.13;;;1.08;;
28926;SDS011;16038;47.692;9.400;2022-09-21T10:40:37;4.80;;;1.45;;
28926;SDS011;16038;47.692;9.400;2022-09-21T10:43:04;6.72;;;1.42;;
28926;SDS011;16038;47.692;9.400;2022-09-21T10:45:30;4.68;;;1.20;;
28926;SDS011;16038;47.692;9.400;2022-09-21T10:52:59;1.58;;;1.10;;
28926;SDS011;16038;47.692;9.400;2022-09-21T10:55:43;4.45;;;1.27;;
28926;SDS011;16038;47.692;9.400;2022-09-21T10:58:15;3.97;;;1.55;;
28926;SDS011;16038;47.692;9.400;2022-09-21T11:00:44;6.32;;;1.60;;
28926;SDS011;16038;47.692;9.400;2022-09-21T11:05:55;3.38;;;1.33;;
28926;SDS011;16038;47.692;9.400;2022-09-21T11:14:19;7.72;;;1.80;;
28926;SDS011;16038;47.692;9.400;2022-09-21T11:19:51;3.08;;;1.10;;
28926;SDS011;16038;47.692;9.400;2022-09-21T11:22:29;4.90;;;1.33;;
28926;SDS011;16038;47.692;9.400;2022-09-21T11:28:10;2.38;;;0.95;;
28926;SDS011;16038;47.692;9.400;2022-09-21T11:33:26;1.65;;;1.02;;
28926;SDS011;16038;47.692;9.400;2022-09-21T11:38:48;4.55;;;1.15;;
28926;SDS011;16038;47.692;9.400;2022-09-21T11:41:56;4.28;;;0.90;;
28926;SDS011;16038;47.692;9.400;2022-09-21T11:44:23;3.03;;;1.02;;
28926;SDS011;16038;47.692;9.400;2022-09-21T11:58:53;10.05;;;1.05;;
28926;SDS011;16038;47.692;9.400;2022-09-21T12:07:06;2.17;;;0.68;;
28926;SDS011;16038;47.692;9.400;2022-09-21T12:10:04;4.07;;;1.15;;
28926;SDS011;16038;47.692;9.400;2022-09-21T12:12:54;2.40;;;0.90;;
28926;SDS011;16038;47.692;9.400;2022-09-21T12:15:30;1.63;;;0.75;;
28926;SDS011;16038;47.692;9.400;2022-09-21T12:21:08;2.80;;;0.70;;
28926;SDS011;16038;47.692;9.400;2022-09-21T12:23:41;3.00;;;0.93;;
28926;SDS011;16038;47.692;9.400;2022-09-21T12:26:13;3.30;;;0.75;;
28926;SDS011;16038;47.692;9.400;2022-09-21T12:28:53;3.17;;;0.93;;
28926;SDS011;16038;47.692;9.400;2022-09-21T12:31:34;2.92;;;0.82;;
28926;SDS011;16038;47.692;9.400;2022-09-21T12:39:45;2.58;;;0.80;;
28926;SDS011;16038;47.692;9.400;2022-09-21T12:42:27;5.13;;;0.95;;
28926;SDS011;16038;47.692;9.400;2022-09-21T12:45:02;5.57;;;1.00;;
28926;SDS011;16038;47.692;9.400;2022-09-21T12:47:56;2.15;;;0.90;;
28926;SDS011;16038;47.692;9.400;2022-09-21T12:53:12;3.60;;;0.77;;
28926;SDS011;16038;47.692;9.400;2022-09-21T12:55:54;2.30;;;1.10;;
28926;SDS011;16038;47.692;9.400;2022-09-21T13:05:19;1.95;;;0.73;;
28926;SDS011;16038;47.692;9.400;2022-09-21T13:10:17;1.17;;;0.50;;
28926;SDS011;16038;47.692;9.400;2022-09-21T13:12:46;1.77;;;0.60;;
28926;SDS011;16038;47.692;9.400;2022-09-21T13:15:24;1.77;;;0.77;;
28926;SDS011;16038;47.692;9.400;2022-09-21T13:17:58;1.45;;;0.65;;
28926;SDS011;16038;47.692;9.400;2022-09-21T13:20:26;2.63;;;0.68;;
28926;SDS011;16038;47.692;9.400;2022-09-21T13:22:59;2.22;;;0.70;;
28926;SDS011;16038;47.692;9.400;2022-09-21T13:25:27;4.85;;;0.65;;
28926;SDS011;16038;47.692;9.400;2022-09-21T13:32:55;3.70;;;0.80;;
28926;SDS011;16038;47.692;9.400;2022-09-21T13:38:21;3.38;;;1.33;;
28926;SDS011;16038;47.692;9.400;2022-09-21T13:40:58;3.38;;;0.60;;
28926;SDS011;16038;47.692;9.400;2022-09-21T13:49:22;4.05;;;1.15;;
28926;SDS011;16038;47.692;9.400;2022-09-21T13:52:05;2.50;;;0.90;;
28926;SDS011;16038;47.692;9.400;2022-09-21T13:54:53;2.78;;;0.60;;
28926;SDS011;16038;47.692;9.400;2022-09-21T13:57:27;4.88;;;1.02;;
28926;SDS011;16038;47.692;9.400;2022-09-21T14:00:03;1.83;;;0.80;;
28926;SDS011;16038;47.692;9.400;2022-09-21T14:02:31;6.38;;;0.88;;
28926;SDS011;16038;47.692;9.400;2022-09-21T14:05:01;3.22;;;0.60;;
28926;SDS011;16038;47.692;9.400;2022-09-21T14:07:31;1.35;;;0.73;;
28926;SDS011;16038;47.692;9.400;2022-09-21T14:09:59;4.15;;;0.80;;
28926;SDS011;16038;47.692;9.400;2022-09-21T14:12:31;1.25;;;0.57;;
28926;SDS011;16038;47.692;9.400;2022-09-21T14:17:43;5.97;;;2.60;;
28926;SDS011;16038;47.692;9.400;2022-09-21T14:20:26;2.88;;;0.65;;
28926;SDS011;16038;47.692;9.400;2022-09-21T14:23:11;0.93;;;0.50;;
28926;SDS011;16038;47.692;9.400;2022-09-21T14:28:13;2.60;;;0.90;;
28926;SDS011;16038;47.692;9.400;2022-09-21T14:30:46;1.52;;;0.60;;
28926;SDS011;16038;47.692;9.400;2022-09-21T14:33:19;1.73;;;0.60;;
28926;SDS011;16038;47.692;9.400;2022-09-21T14:35:50;3.65;;;1.40;;
28926;SDS011;16038;47.692;9.400;2022-09-21T14:38:30;5.22;;;0.90;;
28926;SDS011;16038;47.692;9.400;2022-09-21T14:41:05;1.63;;;0.90;;
28926;SDS011;16038;47.692;9.400;2022-09-21T14:43:32;1.98;;;0.70;;
28926;SDS011;16038;47.692;9.400;2022-09-21T14:54:38;1.95;;;0.70;;
28926;SDS011;16038;47.692;9.400;2022-09-21T14:57:31;5.80;;;0.80;;
28926;SDS011;16038;47.692;9.400;2022-09-21T15:00:12;3.75;;;0.80;;
28926;SDS011;16038;47.692;9.400;2022-09-21T15:02:40;5.13;;;0.90;;
28926;SDS011;16038;47.692;9.400;2022-09-21T15:24:51;1.77;;;0.80;;
28926;SDS011;16038;47.692;9.400;2022-09-21T15:27:17;2.65;;;0.95;;
28926;SDS011;16038;47.692;9.400;2022-09-21T15:29:53;1.65;;;0.63;;
28926;SDS011;16038;47.692;9.400;2022-09-21T15:34:58;1.52;;;0.60;;
28926;SDS011;16038;47.692;9.400;2022-09-21T15:37:28;3.40;;;0.80;;
28926;SDS011;16038;47.692;9.400;2022-09-21T15:39:59;3.17;;;0.80;;
28926;SDS011;16038;47.692;9.400;2022-09-21T15:42:26;7.55;;;0.80;;
28926;SDS011;16038;47.692;9.400;2022-09-21T15:44:58;1.80;;;0.80;;
28926;SDS011;16038;47.692;9.400;2022-09-21T15:47:34;2.22;;;0.90;;
28926;SDS011;16038;47.692;9.400;2022-09-21T15:50:02;5.28;;;0.80;;
28926;SDS011;16038;47.692;9.400;2022-09-21T15:52:32;4.30;;;0.90;;
28926;SDS011;16038;47.692;9.400;2022-09-21T15:55:25;2.55;;;0.80;;
28926;SDS011;16038;47.692;9.400;2022-09-21T15:57:55;2.40;;;0.95;;
28926;SDS011;16038;47.692;9.400;2022-09-21T16:00:31;2.58;;;1.27;;
28926;SDS011;16038;47.692;9.400;2022-09-21T16:03:18;2.58;;;0.90;;
28926;SDS011;16038;47.692;9.400;2022-09-21T16:05:49;1.88;;;1.00;;
28926;SDS011;16038;47.692;9.400;2022-09-21T16:08:20;2.92;;;1.10;;
28926;SDS011;16038;47.692;9.400;2022-09-21T16:10:52;2.85;;;0.93;;
28926;SDS011;16038;47.692;9.400;2022-09-21T16:13:34;5.30;;;1.20;;
28926;SDS011;16038;47.692;9.400;2022-09-21T16:16:18;2.08;;;1.00;;
28926;SDS011;16038;47.692;9.400;2022-09-21T16:18:47;5.47;;;0.95;;
28926;SDS011;16038;47.692;9.400;2022-09-21T16:21:34;5.07;;;0.82;;
28926;SDS011;16038;47.692;9.400;2022-09-21T16:24:09;1.65;;;0.75;;
28926;SDS011;16038;47.692;9.400;2022-09-21T16:26:48;1.73;;;0.80;;
28926;SDS011;16038;47.692;9.400;2022-09-21T16:29:25;2.90;;;0.73;;
28926;SDS011;16038;47.692;9.400;2022-09-21T16:34:51;2.60;;;1.10;;
28926;SDS011;16038;47.692;9.400;2022-09-21T16:39:44;2.70;;;1.00;;
28926;SDS011;16038;47.692;9.400;2022-09-21T16:42:10;3.90;;;0.95;;
28926;SDS011;16038;47.692;9.400;2022-09-21T16:44:36;3.05;;;0.95;;
28926;SDS011;16038;47.692;9.400;2022-09-21T16:47:13;1.67;;;0.98;;
28926;SDS011;16038;47.692;9.400;2022-09-21T16:49:40;3.83;;;1.20;;
28926;SDS011;16038;47.692;9.400;2022-09-21T16:52:06;3.35;;;1.00;;
28926;SDS011;16038;47.692;9.400;2022-09-21T16:54:32;2.90;;;0.98;;
28926;SDS011;16038;47.692;9.400;2022-09-21T16:56:59;2.67;;;1.13;;
28926;SDS011;16038;47.692;9.400;2022-09-21T16:59:26;3.17;;;1.00;;
28926;SDS011;16038;47.692;9.400;2022-09-21T17:01:53;3.35;;;1.45;;
28926;SDS011;16038;47.692;9.400;2022-09-21T17:04:22;3.38;;;0.77;;
28926;SDS011;16038;47.692;9.400;2022-09-21T17:06:50;2.35;;;1.10;;
28926;SDS011;16038;47.692;9.400;2022-09-21T17:11:56;2.63;;;0.80;;
28926;SDS011;16038;47.692;9.400;2022-09-21T17:16:58;3.70;;;1.10;;
28926;SDS011;16038;47.692;9.400;2022-09-21T17:19:24;1.55;;;1.00;;
28926;SDS011;16038;47.692;9.400;2022-09-21T17:21:49;2.50;;;0.98;;
28926;SDS011;16038;47.692;9.400;2022-09-21T17:24:15;8.10;;;2.80;;
28926;SDS011;16038;47.692;9.400;2022-09-21T17:26:41;1.98;;;1.00;;
28926;SDS011;16038;47.692;9.400;2022-09-21T17:29:14;4.70;;;0.90;;
28926;SDS011;16038;47.692;9.400;2022-09-21T17:31:45;3.65;;;1.10;;
28926;SDS011;16038;47.692;9.400;2022-09-21T17:34:11;3.30;;;0.88;;
28926;SDS011;16038;47.692;9.400;2022-09-21T17:36:39;1.85;;;1.00;;
28926;SDS011;16038;47.692;9.400;2022-09-21T17:39:04;3.00;;;1.08;;
28926;SDS011;16038;47.692;9.400;2022-09-21T17:41:33;1.88;;;1.00;;
28926;SDS011;16038;47.692;9.400;2022-09-21T17:44:14;4.50;;;0.80;;
28926;SDS011;16038;47.692;9.400;2022-09-21T17:46:46;1.98;;;0.90;;
28926;SDS011;16038;47.692;9.400;2022-09-21T17:49:18;5.95;;;1.00;;
28926;SDS011;16038;47.692;9.400;2022-09-21T17:51:44;3.08;;;0.90;;
28926;SDS011;16038;47.692;9.400;2022-09-21T17:54:28;2.63;;;1.00;;
28926;SDS011;16038;47.692;9.400;2022-09-21T17:59:30;3.42;;;1.00;;
28926;SDS011;16038;47.692;9.400;2022-09-21T18:02:01;2.53;;;1.00;;
28926;SDS011;16038;47.692;9.400;2022-09-21T18:04:36;1.65;;;1.00;;
28926;SDS011;16038;47.692;9.400;2022-09-21T18:07:02;5.38;;;1.50;;
28926;SDS011;16038;47.692;9.400;2022-09-21T18:09:28;3.40;;;1.77;;
28926;SDS011;16038;47.692;9.400;2022-09-21T18:14:42;1.92;;;0.90;;
28926;SDS011;16038;47.692;9.400;2022-09-21T18:17:31;5.57;;;1.97;;
28926;SDS011;16038;47.692;9.400;2022-09-21T18:26:24;2.15;;;0.85;;
28926;SDS011;16038;47.692;9.400;2022-09-21T18:28:51;1.50;;;0.90;;
28926;SDS011;16038;47.692;9.400;2022-09-21T18:34:15;4.43;;;0.93;;
28926;SDS011;16038;47.692;9.400;2022-09-21T18:44:45;5.15;;;1.10;;
28926;SDS011;16038;47.692;9.400;2022-09-21T18:47:32;3.35;;;0.70;;
28926;SDS011;16038;47.692;9.400;2022-09-21T18:50:06;3.20;;;1.10;;
28926;SDS011;16038;47.692;9.400;2022-09-21T18:55:26;3.92;;;1.58;;